Time;durP1;ratioP1;P1;durP2;ratioP2;P2;SDS_P1;SDS_P2;PMS_P1;PMS_P2;Temp;Humidity;BMP_temperature;BMP_pressure;BME280_temperature;BME280_humidity;BME280_pressure;Samples;Min_cycle;Max_cycle;Signal;HPM_P1;HPM_P2
2021/03/04 00:01:40;;;;;;;19.30;12.23;;;7.90;99.90;;;;;;4987175;28;20456;-86
2021/03/04 00:04:20;;;;;;;18.37;13.33;;;7.90;99.90;;;;;;4988628;28;20457;-86
2021/03/04 00:06:45;;;;;;;15.90;13.27;;;7.90;99.90;;;;;;4992586;28;20897;-87
2021/03/04 00:09:11;;;;;;;16.77;13.00;;;8.00;99.90;;;;;;4973437;28;20506;-87
2021/03/04 00:11:36;;;;;;;18.00;14.30;;;8.00;99.90;;;;;;4975546;28;20200;-88
2021/03/04 00:14:02;;;;;;;16.13;13.83;;;8.00;99.90;;;;;;4973710;28;20189;-87
2021/03/04 00:16:28;;;;;;;17.60;13.40;;;8.00;99.90;;;;;;4971399;28;20205;-87
2021/03/04 00:18:53;;;;;;;16.60;14.63;;;7.90;99.90;;;;;;4971714;28;20206;-88
2021/03/04 00:21:19;;;;;;;20.67;14.20;;;7.80;99.90;;;;;;4974478;28;20219;-87
2021/03/04 00:23:45;;;;;;;25.23;14.00;;;7.80;99.90;;;;;;4977796;28;20208;-88
2021/03/04 00:26:10;;;;;;;13.77;12.27;;;7.80;99.90;;;;;;4969061;28;20654;-87
2021/03/04 00:28:36;;;;;;;15.60;13.10;;;7.70;99.90;;;;;;4969237;28;20321;-86
2021/03/04 00:31:02;;;;;;;15.10;11.40;;;7.70;99.90;;;;;;4973649;28;20276;-86
2021/03/04 00:33:27;;;;;;;18.00;12.57;;;7.60;99.90;;;;;;4975717;28;20583;-85
2021/03/04 00:35:53;;;;;;;14.23;12.37;;;7.60;99.90;;;;;;4974184;28;20457;-86
2021/03/04 00:38:18;;;;;;;18.40;13.57;;;7.60;99.90;;;;;;4970598;28;20183;-85
2021/03/04 00:40:44;;;;;;;15.90;12.30;;;7.60;99.90;;;;;;4969762;28;20708;-86
2021/03/04 00:43:10;;;;;;;19.73;13.40;;;7.60;99.90;;;;;;4967668;28;20216;-86
2021/03/04 00:45:36;;;;;;;18.47;13.73;;;7.60;99.90;;;;;;4988761;28;20227;-86
2021/03/04 00:48:02;;;;;;;20.70;13.90;;;7.60;99.90;;;;;;4990316;28;20450;-85
2021/03/04 00:50:27;;;;;;;17.10;13.17;;;7.60;99.90;;;;;;4970046;28;20431;-86
2021/03/04 00:52:53;;;;;;;20.83;14.10;;;7.50;99.90;;;;;;4973058;28;20201;-86
2021/03/04 00:55:18;;;;;;;17.30;12.77;;;7.50;99.90;;;;;;4972448;28;20740;-86
2021/03/04 00:57:44;;;;;;;15.20;12.00;;;7.50;99.90;;;;;;4971373;28;20716;-87
2021/03/04 01:00:10;;;;;;;16.03;11.80;;;7.50;99.90;;;;;;4973787;28;20747;-86
2021/03/04 01:02:36;;;;;;;16.47;13.10;;;7.50;99.90;;;;;;4977257;28;20185;-87
2021/03/04 01:08:06;;;;;;;15.67;13.20;;;7.50;99.90;;;;;;4986694;28;20204;-87
2021/03/04 01:10:38;;;;;;;17.27;12.93;;;7.50;99.90;;;;;;4989260;28;20561;-86
2021/03/04 01:13:06;;;;;;;16.00;13.30;;;7.50;99.90;;;;;;4974906;28;20601;-87
2021/03/04 01:15:42;;;;;;;15.30;12.93;;;7.50;99.90;;;;;;4975821;28;20958;-89
2021/03/04 01:18:19;;;;;;;16.77;12.97;;;7.50;99.90;;;;;;4972422;28;20833;-87
2021/03/04 01:20:45;;;;;;;15.00;13.10;;;7.50;99.90;;;;;;4977040;28;21013;-87
2021/03/04 01:23:11;;;;;;;17.40;13.30;;;7.60;99.90;;;;;;4977001;28;20758;-87
2021/03/04 01:25:36;;;;;;;19.20;13.70;;;7.60;99.90;;;;;;4972066;28;20462;-88
2021/03/04 01:28:03;;;;;;;19.30;14.70;;;7.50;99.90;;;;;;4986076;28;20283;-88
2021/03/04 01:30:31;;;;;;;19.70;14.70;;;7.50;99.90;;;;;;4975052;28;21038;-88
2021/03/04 01:32:56;;;;;;;20.70;15.33;;;7.50;99.90;;;;;;4974219;28;20210;-88
2021/03/04 01:35:25;;;;;;;17.43;14.07;;;7.50;99.90;;;;;;4973549;28;20996;-89
2021/03/04 01:37:51;;;;;;;17.73;14.13;;;7.50;99.90;;;;;;4975162;28;20195;-87
2021/03/04 01:40:21;;;;;;;16.47;13.50;;;7.50;99.90;;;;;;4988095;28;20442;-88
2021/03/04 01:42:47;;;;;;;20.10;13.00;;;7.60;99.90;;;;;;4973611;28;20432;-87
2021/03/04 01:45:13;;;;;;;16.90;11.90;;;7.60;99.90;;;;;;4976333;28;20811;-87
2021/03/04 01:47:40;;;;;;;18.50;13.00;;;7.80;99.90;;;;;;4976952;28;20345;-88
2021/03/04 01:50:08;;;;;;;14.73;12.30;;;7.70;99.90;;;;;;4971115;28;20894;-88
2021/03/04 01:52:35;;;;;;;21.43;12.97;;;7.70;99.90;;;;;;4969495;28;20448;-88
2021/03/04 01:55:01;;;;;;;15.60;13.57;;;7.60;99.90;;;;;;4972334;28;20448;-88
2021/03/04 01:57:30;;;;;;;14.13;11.97;;;7.60;99.90;;;;;;4973178;28;20508;-88
2021/03/04 01:59:57;;;;;;;17.10;12.63;;;7.50;99.90;;;;;;4972150;28;20842;-88
2021/03/04 02:02:23;;;;;;;16.97;12.70;;;7.50;99.90;;;;;;4970454;28;20455;-87
2021/03/04 02:04:50;;;;;;;14.87;12.33;;;7.50;99.90;;;;;;4971680;28;20459;-87
2021/03/04 02:07:47;;;;;;;19.83;12.60;;;7.50;99.90;;;;;;4970087;28;20457;-87
2021/03/04 02:10:28;;;;;;;18.43;13.67;;;7.40;99.90;;;;;;4971560;28;20480;-88
2021/03/04 02:13:28;;;;;;;16.13;13.17;;;7.50;99.90;;;;;;4974272;28;20869;-87
2021/03/04 02:16:03;;;;;;;17.73;12.37;;;7.50;99.90;;;;;;4961497;28;20447;-87
2021/03/04 02:18:33;;;;;;;21.43;13.30;;;7.40;99.90;;;;;;4975632;28;20932;-87
2021/03/04 02:21:22;;;;;;;17.33;14.10;;;7.50;99.90;;;;;;4972607;28;20502;-87
2021/03/04 02:24:05;;;;;;;16.83;13.90;;;7.50;99.90;;;;;;4972046;28;20451;-87
2021/03/04 02:27:09;;;;;;;17.70;14.20;;;7.50;99.90;;;;;;4972534;28;20453;-87
2021/03/04 02:30:06;;;;;;;18.67;14.33;;;7.40;99.90;;;;;;4972747;28;20486;-87
2021/03/04 02:32:36;;;;;;;20.53;15.57;;;7.30;99.90;;;;;;4975454;28;20446;-87
2021/03/04 02:35:11;;;;;;;20.80;14.53;;;7.30;99.90;;;;;;4975864;28;21504;-86
2021/03/04 02:37:42;;;;;;;24.77;15.90;;;7.40;99.90;;;;;;4988256;28;20685;-86
2021/03/04 02:40:12;;;;;;;18.60;15.17;;;7.40;99.90;;;;;;4976797;28;20452;-86
2021/03/04 02:42:40;;;;;;;17.80;14.30;;;7.40;99.90;;;;;;4975664;28;20879;-88
2021/03/04 02:45:08;;;;;;;16.40;14.03;;;7.40;99.90;;;;;;4971622;28;20447;-88
2021/03/04 02:47:35;;;;;;;18.40;14.03;;;7.40;99.90;;;;;;4985323;28;20442;-88
2021/03/04 02:50:02;;;;;;;19.13;15.63;;;7.40;99.90;;;;;;4986301;28;20475;-89
2021/03/04 02:52:31;;;;;;;18.93;15.33;;;7.30;99.90;;;;;;4965740;28;20491;-88
2021/03/04 02:55:08;;;;;;;18.60;14.97;;;7.30;99.90;;;;;;4974113;28;20448;-88
2021/03/04 02:57:38;;;;;;;23.43;14.33;;;7.20;99.90;;;;;;4975293;28;20444;-88
2021/03/04 03:00:06;;;;;;;17.30;13.23;;;7.20;99.90;;;;;;4972388;28;20958;-87
2021/03/04 03:02:33;;;;;;;20.50;14.40;;;7.20;99.90;;;;;;4976132;28;20493;-88
2021/03/04 03:05:02;;;;;;;16.23;14.13;;;7.20;99.90;;;;;;4974648;28;20578;-88
2021/03/04 03:07:28;;;;;;;18.77;13.67;;;7.20;99.90;;;;;;4973992;28;20453;-88
2021/03/04 03:12:48;;;;;;;16.33;13.50;;;7.10;99.90;;;;;;4992441;28;20191;-88
2021/03/04 03:15:16;;;;;;;14.53;12.33;;;7.00;99.90;;;;;;4973158;28;20455;-87
2021/03/04 03:17:44;;;;;;;19.03;13.53;;;7.00;99.90;;;;;;4980089;28;20579;-88
2021/03/04 03:20:12;;;;;;;16.90;14.07;;;7.10;99.90;;;;;;4978741;28;20922;-88
2021/03/04 03:22:38;;;;;;;18.97;13.80;;;7.10;99.90;;;;;;4977185;28;20524;-87
2021/03/04 03:25:09;;;;;;;17.27;13.50;;;7.10;99.90;;;;;;4976561;28;20443;-88
2021/03/04 03:27:35;;;;;;;15.37;13.37;;;7.20;99.90;;;;;;4990492;28;20463;-88
2021/03/04 03:30:04;;;;;;;17.90;13.87;;;7.20;99.90;;;;;;4973413;28;20996;-88
2021/03/04 03:32:34;;;;;;;17.03;14.27;;;7.40;99.90;;;;;;4977335;28;20448;-88
2021/03/04 03:35:06;;;;;;;15.87;13.60;;;7.40;99.90;;;;;;4995835;28;20793;-88
2021/03/04 03:37:35;;;;;;;18.63;13.37;;;7.40;99.90;;;;;;4974143;28;20483;-87
2021/03/04 03:40:03;;;;;;;18.03;14.83;;;7.40;99.90;;;;;;4991599;28;20534;-88
2021/03/04 03:42:39;;;;;;;17.53;13.60;;;7.40;99.90;;;;;;4989531;28;20450;-87
2021/03/04 03:45:08;;;;;;;19.37;13.93;;;7.40;99.90;;;;;;4972995;28;20456;-87
2021/03/04 03:47:37;;;;;;;18.70;13.13;;;7.30;99.90;;;;;;4975708;28;21030;-87
2021/03/04 03:50:04;;;;;;;17.53;13.37;;;7.30;99.90;;;;;;4975406;28;20502;-86
2021/03/04 03:52:31;;;;;;;18.63;14.70;;;7.20;99.90;;;;;;4977579;28;20449;-87
2021/03/04 03:54:57;;;;;;;17.53;13.47;;;7.20;99.90;;;;;;4969835;28;20452;-86
2021/03/04 03:57:26;;;;;;;17.53;14.17;;;7.20;99.90;;;;;;4976453;28;20437;-86
2021/03/04 03:59:56;;;;;;;23.87;14.77;;;7.20;99.90;;;;;;4978139;28;20803;-86
2021/03/04 04:02:22;;;;;;;16.40;12.90;;;7.30;99.90;;;;;;4970413;28;20445;-85
2021/03/04 04:04:48;;;;;;;18.77;13.77;;;7.30;99.90;;;;;;4988083;28;20856;-89
2021/03/04 04:07:14;;;;;;;18.83;13.77;;;7.30;99.90;;;;;;4976561;28;20436;-88
2021/03/04 04:09:41;;;;;;;17.97;13.57;;;7.20;99.90;;;;;;4974789;28;20490;-88
2021/03/04 04:12:07;;;;;;;19.27;14.80;;;7.20;99.90;;;;;;4975945;28;20806;-89
2021/03/04 04:14:35;;;;;;;15.77;12.80;;;7.20;99.90;;;;;;4974406;28;20470;-89
2021/03/04 04:17:01;;;;;;;22.30;15.00;;;7.20;99.90;;;;;;4978414;28;20445;-88
2021/03/04 04:19:27;;;;;;;21.70;14.37;;;7.20;99.90;;;;;;4974525;28;21019;-87
2021/03/04 04:21:53;;;;;;;15.27;13.00;;;7.10;99.90;;;;;;4989062;28;20462;-87
2021/03/04 04:24:19;;;;;;;21.63;13.80;;;7.10;99.90;;;;;;4989930;28;20185;-87
2021/03/04 04:26:45;;;;;;;20.23;14.10;;;7.10;99.90;;;;;;4975464;28;20448;-88
2021/03/04 04:29:11;;;;;;;18.23;13.63;;;7.10;99.90;;;;;;4976021;28;20229;-88
2021/03/04 04:31:36;;;;;;;16.63;12.73;;;7.10;99.90;;;;;;4975927;28;20267;-87
2021/03/04 04:34:03;;;;;;;22.40;12.50;;;7.10;99.90;;;;;;4973043;28;20214;-87
2021/03/04 04:36:28;;;;;;;16.90;12.77;;;7.10;99.90;;;;;;4975985;28;20461;-88
2021/03/04 04:38:56;;;;;;;21.07;14.03;;;7.00;99.90;;;;;;4978339;28;20442;-88
2021/03/04 04:41:23;;;;;;;16.03;13.00;;;7.00;99.90;;;;;;4972849;28;20217;-87
2021/03/04 04:43:49;;;;;;;17.00;13.20;;;7.00;99.90;;;;;;4974519;28;20553;-88
2021/03/04 04:46:15;;;;;;;18.27;13.03;;;7.00;99.90;;;;;;4990145;28;20557;-88
2021/03/04 04:48:43;;;;;;;19.33;13.73;;;6.90;99.90;;;;;;4973863;28;20197;-88
2021/03/04 04:51:10;;;;;;;17.17;12.57;;;6.90;99.90;;;;;;4973031;28;20584;-88
2021/03/04 04:53:35;;;;;;;13.43;12.03;;;6.90;99.90;;;;;;4991517;28;20959;-87
2021/03/04 04:56:01;;;;;;;16.67;12.27;;;6.80;99.90;;;;;;4974982;28;20458;-87
2021/03/04 04:58:27;;;;;;;17.10;12.87;;;6.80;99.90;;;;;;4971730;28;20195;-87
2021/03/04 05:00:52;;;;;;;17.50;12.67;;;6.80;99.90;;;;;;4974628;28;20349;-87
2021/03/04 05:03:18;;;;;;;14.87;11.60;;;6.70;99.90;;;;;;4979083;28;20185;-87
2021/03/04 05:05:44;;;;;;;12.67;11.40;;;6.60;99.90;;;;;;4976899;28;20195;-87
2021/03/04 05:08:09;;;;;;;15.40;13.13;;;6.60;99.90;;;;;;4977383;28;20184;-88
2021/03/04 05:10:35;;;;;;;16.57;12.83;;;6.60;99.90;;;;;;4976985;28;20215;-87
2021/03/04 05:13:00;;;;;;;16.97;12.30;;;6.60;99.90;;;;;;4992469;28;20212;-87
2021/03/04 05:15:26;;;;;;;19.40;12.77;;;6.60;99.90;;;;;;4974876;28;20231;-88
2021/03/04 05:17:52;;;;;;;17.37;12.40;;;6.50;99.90;;;;;;4977377;28;20307;-89
2021/03/04 05:20:17;;;;;;;18.83;13.60;;;6.40;99.90;;;;;;4977348;28;23713;-88
2021/03/04 05:22:43;;;;;;;14.73;12.23;;;6.50;99.90;;;;;;4976892;28;20227;-88
2021/03/04 05:25:09;;;;;;;16.80;12.90;;;6.50;99.90;;;;;;4973882;28;20602;-89
2021/03/04 05:27:37;;;;;;;17.17;12.10;;;6.60;99.90;;;;;;4975210;28;20549;-88
2021/03/04 05:30:07;;;;;;;18.00;12.33;;;6.60;99.90;;;;;;4998437;28;20521;-89
2021/03/04 05:32:33;;;;;;;16.07;12.37;;;6.60;99.90;;;;;;4976534;28;20434;-88
2021/03/04 05:34:59;;;;;;;18.90;13.70;;;6.60;99.90;;;;;;4973679;28;20468;-89
2021/03/04 05:37:28;;;;;;;15.50;12.00;;;6.60;99.90;;;;;;4982894;28;20445;-89
2021/03/04 05:39:53;;;;;;;19.63;12.73;;;6.50;99.90;;;;;;4976584;28;20186;-88
2021/03/04 05:42:19;;;;;;;17.77;11.27;;;6.40;99.90;;;;;;4978380;28;20787;-88
2021/03/04 05:44:46;;;;;;;15.20;10.90;;;6.50;99.90;;;;;;4976126;28;20633;-88
2021/03/04 05:47:11;;;;;;;14.67;12.30;;;6.50;99.90;;;;;;4974993;28;20460;-89
2021/03/04 05:49:46;;;;;;;17.97;12.73;;;6.40;99.90;;;;;;4977047;28;20860;-89
2021/03/04 05:52:16;;;;;;;15.30;11.40;;;6.40;99.90;;;;;;4977481;28;20230;-88
2021/03/04 05:54:47;;;;;;;16.17;12.10;;;6.30;99.90;;;;;;4992862;28;20515;-89
2021/03/04 05:57:16;;;;;;;13.60;11.30;;;6.30;99.90;;;;;;4983900;28;20827;-89
2021/03/04 05:59:42;;;;;;;18.63;12.00;;;6.30;99.90;;;;;;4977265;28;20544;-89
2021/03/04 06:02:09;;;;;;;21.43;12.20;;;6.30;99.90;;;;;;4973153;28;20779;-88
2021/03/04 06:04:35;;;;;;;17.37;12.17;;;6.30;99.90;;;;;;4973294;28;20437;-88
2021/03/04 06:07:00;;;;;;;14.60;11.40;;;6.30;99.90;;;;;;4971755;28;20462;-89
2021/03/04 06:09:31;;;;;;;17.27;13.07;;;6.30;99.90;;;;;;4976745;28;21876;-89
2021/03/04 06:12:04;;;;;;;14.40;11.83;;;6.30;99.90;;;;;;4973713;28;20217;-90
2021/03/04 06:14:30;;;;;;;14.47;12.60;;;6.30;99.90;;;;;;4976455;28;20456;-88
2021/03/04 06:16:56;;;;;;;15.80;12.10;;;6.30;99.90;;;;;;4975735;28;20857;-89
2021/03/04 06:19:22;;;;;;;23.10;13.33;;;6.30;99.90;;;;;;4976426;28;20440;-89
2021/03/04 06:21:59;;;;;;;17.27;12.40;;;6.40;99.90;;;;;;4976990;28;20209;-89
2021/03/04 06:24:25;;;;;;;17.73;12.73;;;6.40;99.90;;;;;;4973833;28;20189;-88
2021/03/04 06:26:57;;;;;;;16.70;12.23;;;6.30;99.90;;;;;;4976600;28;20471;-89
2021/03/04 06:29:27;;;;;;;18.00;12.43;;;6.30;99.90;;;;;;4974445;28;20222;-90
2021/03/04 06:32:03;;;;;;;14.20;11.67;;;6.30;99.90;;;;;;4976648;28;20502;-89
2021/03/04 06:34:35;;;;;;;16.87;12.83;;;6.40;99.90;;;;;;4979254;28;20643;-88
2021/03/04 06:37:06;;;;;;;16.07;12.57;;;6.40;99.90;;;;;;4976324;28;20482;-89
2021/03/04 06:39:40;;;;;;;19.03;12.63;;;6.30;99.90;;;;;;4974065;28;20447;-91
2021/03/04 06:42:07;;;;;;;17.10;12.83;;;6.40;99.90;;;;;;4981614;28;20977;-95
2021/03/04 06:44:42;;;;;;;18.70;12.10;;;6.40;99.90;;;;;;4983546;28;20479;-96
2021/03/04 06:47:09;;;;;;;16.20;12.00;;;6.60;99.90;;;;;;4978446;28;20469;-95
2021/03/04 06:49:37;;;;;;;17.67;13.20;;;6.60;99.90;;;;;;4995462;28;20483;-94
2021/03/04 06:52:03;;;;;;;17.97;14.10;;;6.60;99.90;;;;;;4982187;28;21732;-94
2021/03/04 06:54:29;;;;;;;18.53;14.17;;;6.70;99.90;;;;;;4980028;28;20482;-94
2021/03/04 06:56:55;;;;;;;18.10;13.20;;;6.70;99.90;;;;;;4983167;28;20530;-92
2021/03/04 06:59:20;;;;;;;16.03;12.80;;;6.80;99.90;;;;;;4978032;28;20182;-94
2021/03/04 07:01:47;;;;;;;18.43;12.80;;;6.90;99.90;;;;;;4983658;28;20788;-95
2021/03/04 07:04:15;;;;;;;16.00;12.53;;;7.00;99.90;;;;;;4980609;28;20181;-89
2021/03/04 07:06:45;;;;;;;16.57;14.60;;;7.10;99.90;;;;;;4978956;28;20456;-92
2021/03/04 07:09:14;;;;;;;22.67;17.30;;;7.10;99.90;;;;;;4995011;28;20469;-94
2021/03/04 07:11:43;;;;;;;18.13;16.00;;;7.10;99.90;;;;;;4971237;28;20449;-94
2021/03/04 07:14:09;;;;;;;17.67;14.40;;;7.10;99.90;;;;;;4981150;28;20444;-88
2021/03/04 07:16:44;;;;;;;21.50;17.40;;;7.10;99.90;;;;;;4978209;28;20440;-88
2021/03/04 07:19:12;;;;;;;16.00;14.03;;;7.10;99.90;;;;;;4977641;28;20449;-89
2021/03/04 07:21:46;;;;;;;19.60;14.37;;;7.10;99.90;;;;;;4971817;28;20427;-90
2021/03/04 07:24:12;;;;;;;18.63;14.40;;;7.10;99.90;;;;;;4987273;28;20447;-90
2021/03/04 07:26:38;;;;;;;17.20;12.67;;;7.00;99.90;;;;;;4974835;28;20428;-90
2021/03/04 07:29:09;;;;;;;17.13;12.37;;;7.10;99.90;;;;;;4973096;28;20496;-90
2021/03/04 07:31:39;;;;;;;18.30;13.00;;;7.20;99.90;;;;;;4979029;28;20440;-90
2021/03/04 07:34:10;;;;;;;16.80;12.37;;;7.20;99.90;;;;;;4979184;28;21194;-91
2021/03/04 07:37:00;;;;;;;14.90;11.70;;;7.20;99.90;;;;;;4989586;28;20810;-90
2021/03/04 07:40:02;;;;;;;17.13;12.20;;;7.30;99.90;;;;;;4975314;28;20461;-91
2021/03/04 07:42:29;;;;;;;17.67;12.47;;;7.50;99.90;;;;;;4973383;28;21314;-90
2021/03/04 07:44:55;;;;;;;15.63;12.60;;;7.70;99.90;;;;;;4974047;28;20496;-90
2021/03/04 07:47:28;;;;;;;15.00;11.77;;;7.70;99.90;;;;;;4962948;28;20522;-90
2021/03/04 07:49:55;;;;;;;16.33;12.13;;;8.00;99.90;;;;;;4990017;28;21126;-89
2021/03/04 07:52:33;;;;;;;13.17;11.50;;;8.10;99.90;;;;;;4969833;28;20801;-90
2021/03/04 07:55:11;;;;;;;14.83;10.37;;;8.30;99.90;;;;;;4985667;28;20482;-89
2021/03/04 07:57:45;;;;;;;18.70;11.80;;;8.40;99.50;;;;;;4975471;28;20444;-88
2021/03/04 08:00:12;;;;;;;18.07;12.03;;;8.50;99.10;;;;;;4977872;28;20523;-90
2021/03/04 08:02:38;;;;;;;15.00;10.90;;;8.70;98.90;;;;;;4978471;28;20481;-89
2021/03/04 08:05:10;;;;;;;15.07;11.70;;;8.90;98.70;;;;;;4977499;28;20437;-87
2021/03/04 08:08:13;;;;;;;14.43;10.57;;;9.10;97.90;;;;;;4974961;28;20451;-90
2021/03/04 08:10:56;;;;;;;15.30;11.07;;;9.30;97.80;;;;;;4971182;28;20488;-89
2021/03/04 08:13:36;;;;;;;15.50;11.50;;;9.50;96.70;;;;;;4993714;28;20527;-89
2021/03/04 08:16:11;;;;;;;12.87;10.80;;;9.60;96.20;;;;;;4973482;28;20446;-87
2021/03/04 08:18:37;;;;;;;16.17;10.80;;;9.80;95.70;;;;;;4976495;28;20429;-88
2021/03/04 08:21:04;;;;;;;16.70;10.67;;;9.90;95.30;;;;;;4976358;28;20463;-92
2021/03/04 08:23:30;;;;;;;15.50;10.43;;;10.00;94.40;;;;;;4976099;28;20933;-89
2021/03/04 08:25:58;;;;;;;15.40;12.13;;;10.10;93.90;;;;;;4981952;28;20444;-96
2021/03/04 08:28:26;;;;;;;15.20;11.70;;;10.20;93.80;;;;;;4978778;28;20504;-94
2021/03/04 08:30:53;;;;;;;13.93;11.77;;;10.10;94.30;;;;;;4979089;28;20485;-90
2021/03/04 08:33:19;;;;;;;17.43;12.07;;;10.10;94.30;;;;;;4973681;28;20478;-91
2021/03/04 08:35:49;;;;;;;15.00;11.77;;;10.30;94.10;;;;;;4970244;28;20535;-92
2021/03/04 08:38:15;;;;;;;18.43;11.70;;;10.60;94.30;;;;;;4970115;28;20551;-92
2021/03/04 08:40:51;;;;;;;14.53;11.80;;;10.50;93.70;;;;;;4972584;28;20435;-91
2021/03/04 08:43:25;;;;;;;15.57;11.73;;;10.80;93.20;;;;;;4978053;28;20987;-95
2021/03/04 08:46:01;;;;;;;17.20;12.63;;;10.90;92.30;;;;;;4973953;28;20472;-91
2021/03/04 08:48:27;;;;;;;14.27;11.23;;;10.90;92.60;;;;;;4976808;28;20475;-94
2021/03/04 08:50:55;;;;;;;15.30;11.30;;;11.20;92.80;;;;;;4974325;28;21233;-90
2021/03/04 08:53:25;;;;;;;14.00;11.27;;;11.40;91.60;;;;;;4973588;28;20236;-92
2021/03/04 08:56:04;;;;;;;24.23;12.47;;;11.50;91.30;;;;;;4993006;28;20467;-94
2021/03/04 08:58:32;;;;;;;13.70;11.63;;;11.50;90.60;;;;;;4975632;28;20458;-93
2021/03/04 09:01:03;;;;;;;15.90;11.53;;;11.60;90.90;;;;;;4973067;28;20454;-91
2021/03/04 09:03:33;;;;;;;13.53;11.13;;;11.70;90.30;;;;;;4985664;28;20445;-92
2021/03/04 09:06:16;;;;;;;14.90;10.93;;;11.70;90.20;;;;;;4975655;28;20447;-95
2021/03/04 09:16:40;;;;;;;14.13;10.60;;;12.70;86.30;;;;;;5969534;23;20486;-96
2021/03/04 09:19:39;;;;;;;16.90;10.93;;;12.60;86.50;;;;;;5021827;28;20459;-96
2021/03/04 09:22:17;;;;;;;13.83;11.10;;;12.60;85.30;;;;;;5021299;28;20462;-96
2021/03/04 09:24:46;;;;;;;19.70;10.83;;;12.70;83.20;;;;;;5015142;28;20439;-95
2021/03/04 09:27:13;;;;;;;16.27;13.00;;;13.00;79.40;;;;;;5013850;28;20450;-96
2021/03/04 09:32:14;;;;;;;12.83;10.30;;;13.30;76.10;;;;;;5018651;28;21035;-96
2021/03/04 09:34:43;;;;;;;13.43;10.43;;;13.20;74.70;;;;;;4995785;28;20440;-96
2021/03/04 09:55:17;;;;;;;14.13;9.10;;;14.20;62.00;;;;;;5037055;23;20486;-96
2021/03/04 09:57:46;;;;;;;12.73;8.77;;;14.30;63.60;;;;;;5010445;28;20443;-96
2021/03/04 10:00:16;;;;;;;14.70;8.63;;;14.20;61.50;;;;;;5019329;28;21124;-96
2021/03/04 10:02:42;;;;;;;11.63;8.83;;;14.10;61.90;;;;;;5000392;28;20441;-96
2021/03/04 10:07:48;;;;;;;13.03;9.00;;;14.30;61.00;;;;;;5082631;22;20251;-96
2021/03/04 10:10:21;;;;;;;12.43;8.40;;;14.60;61.10;;;;;;5042506;28;20474;-96
2021/03/04 10:16:09;;;;;;;10.37;7.80;;;14.40;58.10;;;;;;5093732;22;20520;-96
2021/03/04 10:18:35;;;;;;;13.63;7.90;;;14.60;56.90;;;;;;5005563;28;21125;-96
2021/03/04 10:21:06;;;;;;;10.37;8.00;;;14.70;56.70;;;;;;5008531;28;20447;-96
2021/03/04 10:23:41;;;;;;;14.10;7.97;;;14.90;56.80;;;;;;5005615;28;20212;-96
2021/03/04 10:26:06;;;;;;;10.40;8.33;;;14.90;55.90;;;;;;5064303;23;20510;-96
2021/03/04 10:28:53;;;;;;;12.67;8.50;;;15.00;56.00;;;;;;4994981;28;20440;-96
2021/03/04 10:31:19;;;;;;;10.57;7.30;;;15.20;55.40;;;;;;4994840;28;20474;-96
2021/03/04 10:33:45;;;;;;;13.40;8.07;;;15.30;53.70;;;;;;4992229;28;20456;-96
2021/03/04 10:36:13;;;;;;;12.03;8.10;;;15.70;54.10;;;;;;4990189;28;20316;-95
2021/03/04 10:38:39;;;;;;;14.17;10.03;;;16.00;53.50;;;;;;4992653;28;20304;-93
2021/03/04 10:41:10;;;;;;;12.37;7.13;;;16.00;53.60;;;;;;4994171;28;20555;-96
2021/03/04 10:43:52;;;;;;;12.20;8.00;;;16.30;53.00;;;;;;4991149;28;20862;-96
2021/03/04 10:46:17;;;;;;;15.90;7.20;;;16.30;53.20;;;;;;5003710;28;20890;-93
2021/03/04 10:48:43;;;;;;;12.93;6.70;;;16.60;52.50;;;;;;4995644;28;20902;-94
2021/03/04 10:51:13;;;;;;;9.57;7.57;;;16.60;50.80;;;;;;4989654;28;20204;-95
2021/03/04 10:53:38;;;;;;;13.90;7.50;;;15.90;50.90;;;;;;4989300;28;20197;-95
2021/03/04 10:56:04;;;;;;;9.87;6.93;;;16.10;51.00;;;;;;4991289;28;20461;-95
2021/03/04 10:58:42;;;;;;;19.90;8.57;;;16.50;50.90;;;;;;4988591;28;20223;-96
2021/03/04 11:01:12;;;;;;;14.20;8.10;;;16.20;51.90;;;;;;5026541;28;20193;-96
2021/03/04 11:03:38;;;;;;;14.17;8.17;;;16.60;50.70;;;;;;5025789;28;20505;-96
2021/03/04 11:06:04;;;;;;;16.77;8.20;;;16.60;49.70;;;;;;5002517;28;20437;-96
2021/03/04 11:08:29;;;;;;;11.73;7.23;;;16.90;49.60;;;;;;4997975;28;20471;-96
2021/03/04 11:10:56;;;;;;;17.37;8.00;;;17.30;49.00;;;;;;4996949;28;20251;-94
2021/03/04 11:13:44;;;;;;;12.83;8.10;;;16.80;49.20;;;;;;4996199;28;20200;-96
2021/03/04 11:29:16;;;;;;;21.80;8.40;;;17.20;48.00;;;;;;5029508;28;20513;-96
2021/03/04 11:31:43;;;;;;;10.83;8.33;;;17.50;48.20;;;;;;5016712;28;20459;-96
2021/03/04 11:34:09;;;;;;;9.97;8.50;;;17.70;48.10;;;;;;4990952;28;20447;-93
2021/03/04 11:36:36;;;;;;;15.07;8.07;;;17.20;47.30;;;;;;4988538;28;21203;-95
2021/03/04 11:39:03;;;;;;;17.13;9.13;;;17.00;47.90;;;;;;4989194;28;20189;-93
2021/03/04 11:44:35;;;;;;;17.30;8.00;;;17.80;47.30;;;;;;5042040;28;20454;-94
2021/03/04 11:47:04;;;;;;;11.23;8.03;;;18.60;46.90;;;;;;5019511;28;20450;-96
2021/03/04 11:49:48;;;;;;;12.30;8.30;;;18.60;46.70;;;;;;5027537;28;20486;-96
2021/03/04 11:52:17;;;;;;;8.67;7.73;;;18.30;45.20;;;;;;5022020;28;20457;-95
2021/03/04 11:54:42;;;;;;;15.43;7.80;;;18.50;45.10;;;;;;5031084;28;20454;-95
2021/03/04 11:57:28;;;;;;;10.90;7.83;;;18.80;46.60;;;;;;5038484;28;20450;-93
2021/03/04 11:59:56;;;;;;;12.50;7.40;;;18.30;44.40;;;;;;5028246;28;20447;-96
2021/03/04 12:02:41;;;;;;;14.93;8.23;;;17.30;45.70;;;;;;5045917;28;20485;-95
2021/03/04 12:05:07;;;;;;;17.93;8.23;;;17.40;47.00;;;;;;5027163;28;20529;-96
2021/03/04 12:07:33;;;;;;;16.33;8.40;;;18.30;48.10;;;;;;5029486;28;20509;-95
2021/03/04 12:09:59;;;;;;;10.97;7.97;;;18.20;44.90;;;;;;5023768;28;20553;-95
2021/03/04 12:12:44;;;;;;;15.30;8.43;;;17.50;45.40;;;;;;5028651;28;20188;-96
2021/03/04 12:15:16;;;;;;;14.60;7.60;;;17.10;45.90;;;;;;5044744;28;20187;-96
2021/03/04 12:17:44;;;;;;;17.23;9.50;;;17.00;46.40;;;;;;5034659;28;20431;-96
2021/03/04 12:20:11;;;;;;;11.40;8.20;;;17.30;47.30;;;;;;5035730;28;20473;-93
2021/03/04 12:22:46;;;;;;;10.97;8.17;;;18.00;47.40;;;;;;5114965;22;20907;-95
2021/03/04 12:25:12;;;;;;;9.97;7.80;;;17.90;45.90;;;;;;4999165;28;20442;-95
2021/03/04 12:30:16;;;;;;;16.70;8.33;;;17.30;45.90;;;;;;5284085;23;20240;-92
2021/03/04 12:32:42;;;;;;;15.43;8.90;;;17.80;46.00;;;;;;4995198;28;21029;-90
2021/03/04 12:35:08;;;;;;;11.50;8.40;;;17.80;45.20;;;;;;4992211;28;20457;-90
2021/03/04 12:37:34;;;;;;;18.17;8.70;;;17.80;45.40;;;;;;4992318;28;20444;-92
2021/03/04 12:40:00;;;;;;;20.37;9.00;;;17.90;45.00;;;;;;4993489;28;21014;-91
2021/03/04 12:42:25;;;;;;;16.13;8.93;;;17.80;45.70;;;;;;4995904;28;20189;-94
2021/03/04 12:44:51;;;;;;;17.63;9.93;;;17.30;46.60;;;;;;4999326;28;20463;-92
2021/03/04 12:47:17;;;;;;;15.00;9.40;;;17.00;46.50;;;;;;4998145;28;20188;-90
2021/03/04 12:49:43;;;;;;;13.27;8.30;;;16.90;47.40;;;;;;4994870;28;20246;-89
2021/03/04 12:52:09;;;;;;;12.50;8.60;;;16.80;46.80;;;;;;4986020;28;20184;-91
2021/03/04 12:54:35;;;;;;;13.50;8.20;;;16.70;47.40;;;;;;4991736;28;20690;-90
2021/03/04 12:57:00;;;;;;;25.73;9.33;;;17.00;46.70;;;;;;4991305;28;20593;-91
2021/03/04 12:59:26;;;;;;;16.90;9.90;;;16.70;46.70;;;;;;4997933;28;20610;-91
2021/03/04 13:01:52;;;;;;;21.97;8.97;;;16.40;47.30;;;;;;4996345;28;20195;-91
2021/03/04 13:04:18;;;;;;;16.03;9.77;;;16.90;47.20;;;;;;4993900;28;20188;-90
2021/03/04 13:06:46;;;;;;;11.70;8.90;;;17.00;46.60;;;;;;4994545;28;20299;-90
2021/03/04 13:09:13;;;;;;;18.37;9.17;;;16.80;46.30;;;;;;4996396;28;20754;-91
2021/03/04 13:11:41;;;;;;;14.00;8.27;;;17.20;47.20;;;;;;4990980;28;20479;-92
2021/03/04 13:14:08;;;;;;;15.33;8.33;;;17.30;46.50;;;;;;4993638;28;20772;-91
2021/03/04 13:16:34;;;;;;;10.70;8.50;;;17.20;46.00;;;;;;4998717;28;20573;-90
2021/03/04 13:19:00;;;;;;;17.07;9.70;;;18.20;46.50;;;;;;4992830;28;20441;-91
2021/03/04 13:21:27;;;;;;;27.27;10.20;;;19.30;44.70;;;;;;4996149;28;20224;-92
2021/03/04 13:23:53;;;;;;;16.20;9.40;;;19.40;43.30;;;;;;4997844;28;20442;-91
2021/03/04 13:26:19;;;;;;;17.17;9.53;;;19.10;44.00;;;;;;4997490;28;20991;-92
2021/03/04 13:28:45;;;;;;;16.43;8.83;;;19.30;43.70;;;;;;4994191;28;20472;-90
2021/03/04 13:31:11;;;;;;;12.57;8.30;;;19.70;43.00;;;;;;4995282;28;21179;-91
2021/03/04 13:33:38;;;;;;;19.13;12.40;;;19.90;43.20;;;;;;4993246;28;20444;-91
2021/03/04 13:36:07;;;;;;;14.33;10.47;;;19.10;43.60;;;;;;4989023;28;20463;-88
2021/03/04 13:38:33;;;;;;;13.93;10.17;;;17.80;44.60;;;;;;4990828;28;22178;-87
2021/03/04 13:41:00;;;;;;;14.97;8.77;;;17.50;47.30;;;;;;4993248;28;20852;-91
2021/03/04 13:43:28;;;;;;;13.63;9.70;;;17.40;46.80;;;;;;4990143;28;20199;-89
2021/03/04 13:45:55;;;;;;;13.80;9.00;;;17.00;46.80;;;;;;5006046;28;20964;-92